createdAt,value
2022-10-02T00:00:16.957Z,17.00
2022-10-02T00:02:55.992Z,12.20
2022-10-02T00:05:49.938Z,15.85
2022-10-02T00:08:24.494Z,16.52
2022-10-02T00:11:14.988Z,18.95
2022-10-02T00:13:48.738Z,15.52
2022-10-02T00:16:24.345Z,20.55
2022-10-02T00:18:54.335Z,14.52
2022-10-02T00:21:56.323Z,17.20
2022-10-02T00:24:27.957Z,19.52
2022-10-02T00:27:15.463Z,17.13
2022-10-02T00:29:53.440Z,19.95
2022-10-02T00:32:38.209Z,21.65
2022-10-02T00:35:35.300Z,15.40
2022-10-02T00:38:34.169Z,22.55
2022-10-02T00:41:28.972Z,16.42
2022-10-02T00:44:09.986Z,20.33
2022-10-02T00:46:58.715Z,20.02
2022-10-02T00:50:03.129Z,13.30
2022-10-02T00:53:13.335Z,25.88
2022-10-02T00:56:07.112Z,19.58
2022-10-02T00:58:58.052Z,19.15
2022-10-02T01:01:52.523Z,21.00
2022-10-02T01:04:35.239Z,17.17
2022-10-02T01:07:05.165Z,17.52
2022-10-02T01:09:33.479Z,21.92
2022-10-02T01:12:01.544Z,17.52
2022-10-02T01:14:40.886Z,15.30
2022-10-02T01:17:23.972Z,12.63
2022-10-02T01:19:51.057Z,20.67
2022-10-02T01:22:26.205Z,16.40
2022-10-02T01:24:57.993Z,20.58
2022-10-02T01:27:26.897Z,15.65
2022-10-02T01:30:07.613Z,20.52
2022-10-02T01:32:40.700Z,14.23
2022-10-02T01:35:08.612Z,18.88
2022-10-02T01:37:38.520Z,14.48
2022-10-02T01:40:11.551Z,22.35
2022-10-02T01:42:39.310Z,15.68
2022-10-02T01:45:09.248Z,11.73
2022-10-02T01:48:02.154Z,19.58
2022-10-02T01:51:05.519Z,24.77
2022-10-02T01:54:05.065Z,17.23
2022-10-02T01:57:02.915Z,25.08
2022-10-02T01:59:35.332Z,17.63
2022-10-02T02:02:30.195Z,14.50
2022-10-02T02:05:20.647Z,18.10
2022-10-02T02:08:08.173Z,15.82
2022-10-02T02:11:12.310Z,22.88
2022-10-02T02:14:01.103Z,18.63
2022-10-02T02:16:36.799Z,12.90
2022-10-02T02:19:20.465Z,24.70
2022-10-02T02:21:58.779Z,19.35
2022-10-02T02:24:39.464Z,20.02
2022-10-02T02:27:07.758Z,17.73
2022-10-02T02:29:39.029Z,20.48
2022-10-02T02:32:10.692Z,15.77
2022-10-02T02:34:47.825Z,19.52
2022-10-02T02:37:19.415Z,16.17
2022-10-02T02:39:54.427Z,16.55
2022-10-02T02:45:04.194Z,17.23
2022-10-02T02:47:44.123Z,19.55
2022-10-02T02:50:17.072Z,19.65
2022-10-02T02:53:11.821Z,21.58
2022-10-02T02:56:08.140Z,22.65
2022-10-02T02:58:41.885Z,21.02
2022-10-02T03:01:08.758Z,17.15
2022-10-02T03:03:35.952Z,18.83
2022-10-02T03:06:20.437Z,15.73
2022-10-02T03:08:53.199Z,18.38
2022-10-02T03:11:44.146Z,17.35
2022-10-02T03:14:32.275Z,16.13
2022-10-02T03:17:22.333Z,23.27
2022-10-02T03:20:17.684Z,11.95
2022-10-02T03:23:03.182Z,16.95
2022-10-02T03:28:53.963Z,15.25
2022-10-02T03:31:19.020Z,16.95
2022-10-02T03:33:47.561Z,14.23
2022-10-02T03:36:18.055Z,17.98
2022-10-02T03:38:53.434Z,13.80
2022-10-02T03:41:33.653Z,13.07
2022-10-02T03:44:00.739Z,13.02
2022-10-02T03:46:27.678Z,16.92
2022-10-02T03:48:56.701Z,17.20
2022-10-02T03:51:24.651Z,16.73
2022-10-02T03:53:52.728Z,16.10
2022-10-02T03:56:56.571Z,18.55
2022-10-02T04:00:01.562Z,12.82
2022-10-02T04:02:43.585Z,13.98
2022-10-02T04:05:23.126Z,21.40
2022-10-02T04:07:56.745Z,14.60
2022-10-02T04:10:41.456Z,11.30
2022-10-02T04:13:17.180Z,18.90
2022-10-02T04:16:25.004Z,13.85
2022-10-02T04:19:01.077Z,20.00
2022-10-02T04:21:48.417Z,13.63
2022-10-02T04:24:24.225Z,12.73
2022-10-02T04:27:00.100Z,16.13
2022-10-02T04:29:34.307Z,14.60
2022-10-02T04:32:13.211Z,17.43
2022-10-02T04:34:40.350Z,14.35
2022-10-02T04:37:44.855Z,15.40
2022-10-02T04:40:30.700Z,16.33
2022-10-02T04:43:50.470Z,15.68
2022-10-02T04:46:17.396Z,13.73
2022-10-02T04:49:16.467Z,22.38
2022-10-02T04:52:04.386Z,18.30
2022-10-02T04:54:52.562Z,15.57
2022-10-02T04:57:33.276Z,20.15
2022-10-02T05:00:22.227Z,12.95
2022-10-02T05:03:46.684Z,12.85
2022-10-02T05:06:16.423Z,19.23
2022-10-02T05:08:58.604Z,15.35
2022-10-02T05:11:40.492Z,17.60
2022-10-02T05:14:31.168Z,17.80
2022-10-02T05:17:13.072Z,13.93
2022-10-02T05:20:50.521Z,14.60
2022-10-02T05:23:37.431Z,17.38
2022-10-02T05:26:29.851Z,16.45
2022-10-02T05:29:28.065Z,17.00
2022-10-02T05:32:22.031Z,11.75
2022-10-02T05:35:37.401Z,19.85
2022-10-02T05:38:22.926Z,17.83
2022-10-02T05:41:03.720Z,15.20
2022-10-02T05:43:56.568Z,16.42
2022-10-02T05:46:27.247Z,20.15
2022-10-02T05:49:15.186Z,23.65
2022-10-02T05:51:59.809Z,23.42
2022-10-02T05:54:45.809Z,20.60
2022-10-02T05:57:38.788Z,17.95
2022-10-02T06:00:27.089Z,17.55
2022-10-02T06:03:12.595Z,13.45
2022-10-02T06:08:41.596Z,14.15
2022-10-02T06:11:33.999Z,20.48
2022-10-02T06:14:26.927Z,13.55
2022-10-02T06:17:10.809Z,10.05
2022-10-02T06:19:46.076Z,10.45
2022-10-02T06:22:15.532Z,17.80
2022-10-02T06:25:04.808Z,15.35
2022-10-02T06:27:55.834Z,23.02
2022-10-02T06:30:22.672Z,17.73
2022-10-02T06:32:56.344Z,17.45
2022-10-02T06:35:38.299Z,27.23
2022-10-02T06:38:27.546Z,30.33
2022-10-02T06:41:34.698Z,23.77
2022-10-02T06:44:17.536Z,21.63
2022-10-02T06:47:47.717Z,19.60
2022-10-02T06:50:20.357Z,20.25
2022-10-02T06:52:53.490Z,26.17
2022-10-02T06:55:45.817Z,26.05
2022-10-02T06:58:25.157Z,14.40
2022-10-02T07:01:27.447Z,17.92
2022-10-02T07:04:42.523Z,16.55
2022-10-02T07:07:37.816Z,16.95
2022-10-02T07:10:23.173Z,17.25
2022-10-02T07:13:57.269Z,16.52
2022-10-02T07:16:54.993Z,16.90
2022-10-02T07:20:29.677Z,20.40
2022-10-02T07:23:13.631Z,25.83
2022-10-02T07:26:19.013Z,15.38
2022-10-02T07:29:03.759Z,23.73
2022-10-02T07:31:42.364Z,16.88
2022-10-02T07:34:30.388Z,18.67
2022-10-02T07:37:48.126Z,22.75
2022-10-02T07:40:52.055Z,18.85
2022-10-02T07:43:42.982Z,15.88
2022-10-02T07:46:40.149Z,25.30
2022-10-02T07:49:37.561Z,21.67
2022-10-02T07:52:16.392Z,17.20
2022-10-02T07:55:10.067Z,16.02
2022-10-02T07:57:52.434Z,24.13
2022-10-02T08:00:24.221Z,14.70
2022-10-02T08:03:22.260Z,19.35
2022-10-02T08:05:56.687Z,16.15
2022-10-02T08:08:45.753Z,20.45
2022-10-02T08:11:40.450Z,20.33
2022-10-02T08:14:10.260Z,23.02
2022-10-02T08:16:43.342Z,13.63
2022-10-02T08:19:40.304Z,19.75
2022-10-02T08:22:29.717Z,19.15
2022-10-02T08:25:04.685Z,19.15
2022-10-02T08:28:02.272Z,28.10
2022-10-02T08:30:29.245Z,19.00
2022-10-02T08:32:56.884Z,17.88
2022-10-02T08:36:01.498Z,13.65
2022-10-02T08:38:54.601Z,17.25
2022-10-02T08:41:49.587Z,16.33
2022-10-02T08:44:52.476Z,14.10
2022-10-02T08:48:23.701Z,16.27
2022-10-02T08:51:12.252Z,17.77
2022-10-02T08:54:24.374Z,19.35
2022-10-02T08:57:44.700Z,22.60
2022-10-02T09:00:22.253Z,22.02
2022-10-02T09:03:27.764Z,23.27
2022-10-02T09:06:16.495Z,17.97
2022-10-02T09:09:21.384Z,16.45
2022-10-02T09:12:04.222Z,18.80
2022-10-02T09:14:58.057Z,16.95
2022-10-02T09:18:14.932Z,15.13
2022-10-02T09:20:51.490Z,22.88
2022-10-02T09:23:45.378Z,24.60
2022-10-02T09:26:41.385Z,21.25
2022-10-02T09:29:36.916Z,17.70
2022-10-02T09:32:09.712Z,20.58
2022-10-02T09:35:02.236Z,19.23
2022-10-02T09:37:54.037Z,20.20
2022-10-02T09:40:59.647Z,21.45
2022-10-02T09:43:49.084Z,18.00
2022-10-02T09:46:47.434Z,21.50
2022-10-02T09:49:14.473Z,18.23
2022-10-02T09:52:28.671Z,23.90
2022-10-02T09:56:02.853Z,17.23
2022-10-02T09:58:57.775Z,20.67
2022-10-02T10:02:02.364Z,22.75
2022-10-02T10:05:08.942Z,21.10
2022-10-02T10:08:14.720Z,20.75
2022-10-02T10:11:20.667Z,18.08
2022-10-02T10:14:30.696Z,18.50
2022-10-02T10:17:21.617Z,16.38
2022-10-02T10:20:25.893Z,22.15
2022-10-02T10:23:21.080Z,19.02
2022-10-02T10:26:18.685Z,17.25
2022-10-02T10:28:51.302Z,21.08
2022-10-02T10:31:36.917Z,22.27
2022-10-02T10:35:27.072Z,25.17
2022-10-02T10:38:33.416Z,14.32
2022-10-02T10:44:52.599Z,18.92
2022-10-02T10:47:47.129Z,18.92
2022-10-02T10:50:24.606Z,22.40
2022-10-02T10:53:39.298Z,23.33
2022-10-02T10:56:28.171Z,19.98
2022-10-02T10:59:07.957Z,22.75
2022-10-02T11:02:03.869Z,18.02
2022-10-02T11:08:18.227Z,28.67
2022-10-02T11:11:20.438Z,21.42
2022-10-02T11:14:19.823Z,17.38
2022-10-02T11:16:55.420Z,18.63
2022-10-02T11:20:05.832Z,13.55
2022-10-02T11:23:09.164Z,16.25
2022-10-02T11:26:06.324Z,13.13
2022-10-02T11:29:11.572Z,10.63
2022-10-02T11:31:59.833Z,12.07
2022-10-02T11:35:10.124Z,12.35
2022-10-02T11:38:04.026Z,17.23
2022-10-02T11:40:38.336Z,11.57
2022-10-02T11:43:30.136Z,18.42
2022-10-02T11:46:37.404Z,16.77
2022-10-02T11:49:26.570Z,16.17
2022-10-02T11:52:22.520Z,10.77
2022-10-02T11:57:50.553Z,11.57
2022-10-02T12:00:42.690Z,11.02
2022-10-02T12:03:26.184Z,11.65
2022-10-02T12:06:05.773Z,14.10
2022-10-02T12:09:22.449Z,9.98
2022-10-02T12:15:00.460Z,12.32
2022-10-02T12:17:39.607Z,12.10
2022-10-02T12:20:40.812Z,13.85
2022-10-02T12:23:40.256Z,11.18
2022-10-02T12:26:59.248Z,12.77
2022-10-02T12:29:49.713Z,14.32
2022-10-02T12:32:40.993Z,12.52
2022-10-02T12:35:40.758Z,12.27
2022-10-02T12:38:32.481Z,11.65
2022-10-02T12:41:20.966Z,13.95
2022-10-02T12:44:25.445Z,11.48
2022-10-02T12:47:21.209Z,14.10
2022-10-02T12:50:23.954Z,10.77
2022-10-02T12:53:29.300Z,10.93
2022-10-02T12:56:02.152Z,9.82
2022-10-02T12:58:56.779Z,14.98
2022-10-02T13:02:04.838Z,8.15
2022-10-02T13:04:58.158Z,12.32
2022-10-02T13:08:05.580Z,11.18
2022-10-02T13:11:06.437Z,9.60
2022-10-02T13:13:54.500Z,8.85
2022-10-02T13:16:46.844Z,12.15
2022-10-02T13:19:30.621Z,10.57
2022-10-02T13:22:31.566Z,8.40
2022-10-02T13:25:20.007Z,10.15
2022-10-02T13:28:22.868Z,10.10
2022-10-02T13:31:36.866Z,13.73
2022-10-02T13:34:26.923Z,13.65
2022-10-02T13:37:38.499Z,10.63
2022-10-02T13:40:17.957Z,10.32
2022-10-02T13:43:12.984Z,10.38
2022-10-02T13:45:50.059Z,12.67
2022-10-02T13:48:48.805Z,10.55
2022-10-02T13:51:44.248Z,8.98
2022-10-02T13:54:32.219Z,11.73
2022-10-02T13:57:01.807Z,11.50
2022-10-02T13:59:51.680Z,11.32
2022-10-02T14:02:38.035Z,10.55
2022-10-02T14:05:57.088Z,9.82
2022-10-02T14:09:11.161Z,7.43
2022-10-02T14:12:31.032Z,9.38
2022-10-02T14:15:31.041Z,10.43
2022-10-02T14:18:38.054Z,7.72
2022-10-02T14:21:24.153Z,7.85
2022-10-02T14:24:18.526Z,7.50
2022-10-02T14:27:42.180Z,6.40
2022-10-02T14:30:19.596Z,5.10
2022-10-02T14:33:21.037Z,6.32
2022-10-02T14:36:07.487Z,8.45
2022-10-02T14:38:49.551Z,7.60
2022-10-02T14:41:40.637Z,7.65
2022-10-02T14:44:45.403Z,7.90
2022-10-02T14:47:33.807Z,6.53
2022-10-02T14:50:44.220Z,8.23
2022-10-02T14:53:46.367Z,8.35
2022-10-02T14:56:37.998Z,7.90
2022-10-02T14:59:11.102Z,8.82
2022-10-02T15:01:59.690Z,11.55
2022-10-02T15:04:44.752Z,8.27
2022-10-02T15:07:15.790Z,6.60
2022-10-02T15:10:16.000Z,10.23
2022-10-02T15:13:08.054Z,8.57
2022-10-02T15:16:09.927Z,12.10
2022-10-02T15:19:22.339Z,9.75
2022-10-02T15:22:02.916Z,7.82
2022-10-02T15:24:34.475Z,9.52
2022-10-02T15:27:20.913Z,5.88
2022-10-02T15:29:53.737Z,7.25
2022-10-02T15:32:51.245Z,8.23
2022-10-02T15:35:39.221Z,8.20
2022-10-02T15:38:15.385Z,7.82
2022-10-02T15:40:57.932Z,10.70
2022-10-02T15:44:00.975Z,8.45
2022-10-02T15:46:42.609Z,10.82
2022-10-02T15:49:24.401Z,12.23
2022-10-02T15:52:11.077Z,9.85
2022-10-02T15:55:00.882Z,8.05
2022-10-02T15:57:55.272Z,7.75
2022-10-02T16:00:23.553Z,7.47
2022-10-02T16:03:19.600Z,6.50
2022-10-02T16:06:07.553Z,12.55
2022-10-02T16:08:55.561Z,8.95
2022-10-02T16:11:37.793Z,11.10
2022-10-02T16:14:46.598Z,16.40
2022-10-02T16:17:13.334Z,11.10
2022-10-02T16:20:04.210Z,12.88
2022-10-02T16:22:58.225Z,8.98
2022-10-02T16:25:32.216Z,9.82
2022-10-02T16:28:12.528Z,9.90
2022-10-02T16:31:07.923Z,12.15
2022-10-02T16:33:59.388Z,10.30
2022-10-02T16:36:30.355Z,10.82
2022-10-02T16:39:33.933Z,12.20
2022-10-02T16:42:31.473Z,12.10
2022-10-02T16:45:20.749Z,9.75
2022-10-02T16:48:10.342Z,9.23
2022-10-02T16:51:31.176Z,9.40
2022-10-02T16:54:20.897Z,13.07
2022-10-02T16:57:18.687Z,9.25
2022-10-02T16:59:53.285Z,13.88
2022-10-02T17:02:29.115Z,8.00
2022-10-02T17:05:27.371Z,11.48
2022-10-02T17:08:58.740Z,8.60
2022-10-02T17:11:55.040Z,12.13
2022-10-02T17:15:05.658Z,10.18
2022-10-02T17:17:55.513Z,11.07
2022-10-02T17:20:53.743Z,11.15
2022-10-02T17:24:00.906Z,8.13
2022-10-02T17:26:43.827Z,7.07
2022-10-02T17:29:28.201Z,6.78
2022-10-02T17:31:58.793Z,11.35
2022-10-02T17:34:49.336Z,6.40
2022-10-02T17:37:21.047Z,9.23
2022-10-02T17:40:17.217Z,8.25
2022-10-02T17:43:14.332Z,9.95
2022-10-02T17:46:43.204Z,9.43
2022-10-02T17:49:34.382Z,16.60
2022-10-02T17:52:40.970Z,13.70
2022-10-02T17:56:01.120Z,10.77
2022-10-02T17:58:44.085Z,9.45
2022-10-02T18:01:41.799Z,13.07
2022-10-02T18:04:20.302Z,12.40
2022-10-02T18:07:05.315Z,13.18
2022-10-02T18:09:58.854Z,8.18
2022-10-02T18:13:33.240Z,8.38
2022-10-02T18:16:50.918Z,13.85
2022-10-02T18:19:25.146Z,11.73
2022-10-02T18:22:48.715Z,15.30
2022-10-02T18:25:51.361Z,7.88
2022-10-02T18:28:43.567Z,17.67
2022-10-02T18:31:55.430Z,12.07
2022-10-02T18:34:53.637Z,11.80
2022-10-02T18:38:02.636Z,17.63
2022-10-02T18:41:28.230Z,10.35
2022-10-02T18:44:09.969Z,12.32
2022-10-02T18:46:55.416Z,13.43
2022-10-02T18:52:47.528Z,12.52
2022-10-02T18:55:45.383Z,14.88
2022-10-02T18:58:31.828Z,25.00
2022-10-02T19:01:16.430Z,17.20
2022-10-02T19:04:09.648Z,15.10
2022-10-02T19:06:53.567Z,18.50
2022-10-02T19:09:27.869Z,15.88
2022-10-02T19:12:05.403Z,15.73
2022-10-02T19:14:45.665Z,16.50
2022-10-02T19:17:27.901Z,20.20
2022-10-02T19:19:55.964Z,18.50
2022-10-02T19:22:36.404Z,30.73
2022-10-02T19:25:16.220Z,19.48
2022-10-02T19:27:50.359Z,21.27
2022-10-02T19:30:27.828Z,16.33
2022-10-02T19:33:03.284Z,14.20
2022-10-02T19:35:42.666Z,13.88
2022-10-02T19:38:13.803Z,17.17
2022-10-02T19:40:41.653Z,16.77
2022-10-02T19:43:29.669Z,20.27
2022-10-02T19:46:01.892Z,19.80
2022-10-02T19:48:31.857Z,20.17
2022-10-02T19:51:01.637Z,19.10
2022-10-02T19:53:34.323Z,21.48
2022-10-02T19:56:07.313Z,16.58
2022-10-02T19:58:51.317Z,18.35
2022-10-02T20:01:27.661Z,17.15
2022-10-02T20:04:01.793Z,10.68
2022-10-02T20:06:34.849Z,13.75
2022-10-02T20:09:12.104Z,12.77
2022-10-02T20:11:59.614Z,11.43
2022-10-02T20:14:37.504Z,15.93
2022-10-02T20:17:10.600Z,10.38
2022-10-02T20:19:51.937Z,11.68
2022-10-02T20:23:01.912Z,9.13
2022-10-02T20:25:44.987Z,13.25
2022-10-02T20:29:05.915Z,11.02
2022-10-02T20:31:50.967Z,12.35
2022-10-02T20:34:29.542Z,12.55
2022-10-02T20:37:06.462Z,9.70
2022-10-02T20:39:40.547Z,13.82
2022-10-02T20:42:26.502Z,15.48
2022-10-02T20:44:54.669Z,11.40
2022-10-02T20:48:17.274Z,11.52
2022-10-02T20:50:57.624Z,16.85
2022-10-02T20:54:03.625Z,13.57
2022-10-02T20:56:45.559Z,15.63
2022-10-02T20:59:27.315Z,14.95
2022-10-02T21:02:28.150Z,14.13
2022-10-02T21:05:16.065Z,13.85
2022-10-02T21:08:28.161Z,11.80
2022-10-02T21:11:46.722Z,15.52
2022-10-02T21:14:22.878Z,15.57
2022-10-02T21:17:07.140Z,19.15
2022-10-02T21:20:50.236Z,20.52
2022-10-02T21:23:39.034Z,23.40
2022-10-02T21:26:35.894Z,22.55
2022-10-02T21:29:29.132Z,19.67
2022-10-02T21:32:24.885Z,15.18
2022-10-02T21:35:34.281Z,18.83
2022-10-02T21:38:16.766Z,15.75
2022-10-02T21:41:19.601Z,14.50
2022-10-02T21:44:40.387Z,14.10
2022-10-02T21:47:43.888Z,9.35
2022-10-02T21:50:38.517Z,12.38
2022-10-02T21:53:26.729Z,10.52
2022-10-02T21:56:52.681Z,13.30
2022-10-02T21:59:39.009Z,15.35
2022-10-02T22:02:18.907Z,10.60
2022-10-02T22:05:19.330Z,11.25
2022-10-02T22:08:23.823Z,11.10
2022-10-02T22:11:38.876Z,11.85
2022-10-02T22:14:12.901Z,10.63
2022-10-02T22:17:09.449Z,9.95
2022-10-02T22:20:08.873Z,17.13
2022-10-02T22:23:12.559Z,10.57
2022-10-02T22:25:39.272Z,15.23
2022-10-02T22:28:56.990Z,12.05
2022-10-02T22:31:51.600Z,15.27
2022-10-02T22:34:29.004Z,14.13
2022-10-02T22:37:36.357Z,21.38
2022-10-02T22:40:08.588Z,14.00
2022-10-02T22:42:46.128Z,17.20
2022-10-02T22:45:22.071Z,18.25
2022-10-02T22:48:00.214Z,13.00
2022-10-02T22:50:33.051Z,20.25
2022-10-02T22:53:07.382Z,19.67
2022-10-02T22:55:49.206Z,20.45
2022-10-02T22:58:33.939Z,17.52
2022-10-02T23:01:14.746Z,13.20
2022-10-02T23:03:58.449Z,16.27
2022-10-02T23:06:44.546Z,13.60
2022-10-02T23:09:38.210Z,18.25
2022-10-02T23:12:23.339Z,14.88
2022-10-02T23:15:42.017Z,16.38
2022-10-02T23:21:02.719Z,12.35
2022-10-02T23:24:02.535Z,13.30
2022-10-02T23:26:42.837Z,15.88
2022-10-02T23:29:39.617Z,12.93
2022-10-02T23:32:31.771Z,10.02
2022-10-02T23:35:38.907Z,14.57
2022-10-02T23:38:53.088Z,12.18
2022-10-02T23:41:39.620Z,11.70
2022-10-02T23:44:43.273Z,10.57
2022-10-02T23:47:42.940Z,10.43
2022-10-02T23:50:25.904Z,15.88
2022-10-02T23:53:27.577Z,11.38
2022-10-02T23:55:54.542Z,12.32
2022-10-02T23:59:04.498Z,10.40
